sensor_id;sensor_type;location;lat;lon;timestamp;temperature;humidity
19033;DHT22;9649;51.042;13.804;2022-11-20T00:04:26;-4.10;99.90
19033;DHT22;9649;51.042;13.804;2022-11-20T00:09:28;-4.10;99.90
19033;DHT22;9649;51.042;13.804;2022-11-20T00:14:32;-4.20;99.90
19033;DHT22;9649;51.042;13.804;2022-11-20T00:19:35;-4.30;99.90
19033;DHT22;9649;51.042;13.804;2022-11-20T00:24:38;-4.40;99.90
19033;DHT22;9649;51.042;13.804;2022-11-20T00:29:45;-4.60;99.90
19033;DHT22;9649;51.042;13.804;2022-11-20T00:34:48;-4.50;99.90
19033;DHT22;9649;51.042;13.804;2022-11-20T00:39:50;-4.40;99.90
19033;DHT22;9649;51.042;13.804;2022-11-20T00:44:54;-4.30;99.90
19033;DHT22;9649;51.042;13.804;2022-11-20T00:49:57;-4.40;99.90
19033;DHT22;9649;51.042;13.804;2022-11-20T00:55:00;-4.40;99.90
19033;DHT22;9649;51.042;13.804;2022-11-20T01:00:06;-4.40;99.90
19033;DHT22;9649;51.042;13.804;2022-11-20T01:05:08;-4.40;99.90
19033;DHT22;9649;51.042;13.804;2022-11-20T01:10:11;-4.60;99.90
19033;DHT22;9649;51.042;13.804;2022-11-20T01:15:16;-4.70;99.90
19033;DHT22;9649;51.042;13.804;2022-11-20T01:20:18;-4.90;99.90
19033;DHT22;9649;51.042;13.804;2022-11-20T01:25:21;-5.30;99.90
19033;DHT22;9649;51.042;13.804;2022-11-20T01:30:25;-5.40;99.90
19033;DHT22;9649;51.042;13.804;2022-11-20T01:35:28;-5.40;99.90
19033;DHT22;9649;51.042;13.804;2022-11-20T01:40:31;-5.20;99.90
19033;DHT22;9649;51.042;13.804;2022-11-20T01:45:56;-5.10;99.90
19033;DHT22;9649;51.042;13.804;2022-11-20T01:51:00;-5.20;99.90
19033;DHT22;9649;51.042;13.804;2022-11-20T01:56:09;-5.10;99.90
19033;DHT22;9649;51.042;13.804;2022-11-20T02:01:14;-5.40;99.90
19033;DHT22;9649;51.042;13.804;2022-11-20T02:06:20;-5.70;99.90
19033;DHT22;9649;51.042;13.804;2022-11-20T02:11:25;-5.70;99.90
19033;DHT22;9649;51.042;13.804;2022-11-20T02:16:32;-5.60;99.90
19033;DHT22;9649;51.042;13.804;2022-11-20T02:21:41;-5.40;99.90
19033;DHT22;9649;51.042;13.804;2022-11-20T02:26:50;-5.20;99.90
19033;DHT22;9649;51.042;13.804;2022-11-20T02:31:55;-5.00;99.90
19033;DHT22;9649;51.042;13.804;2022-11-20T02:36:59;-4.90;99.90
19033;DHT22;9649;51.042;13.804;2022-11-20T02:42:04;-4.80;99.90
19033;DHT22;9649;51.042;13.804;2022-11-20T02:47:07;-4.90;99.90
19033;DHT22;9649;51.042;13.804;2022-11-20T02:52:10;-5.20;99.90
19033;DHT22;9649;51.042;13.804;2022-11-20T02:57:14;-5.30;99.90
19033;DHT22;9649;51.042;13.804;2022-11-20T03:02:16;-5.30;99.90
19033;DHT22;9649;51.042;13.804;2022-11-20T03:07:19;-5.30;99.90
19033;DHT22;9649;51.042;13.804;2022-11-20T03:12:23;-5.20;99.90
19033;DHT22;9649;51.042;13.804;2022-11-20T03:17:26;-5.20;99.90
19033;DHT22;9649;51.042;13.804;2022-11-20T03:22:31;-5.50;99.90
19033;DHT22;9649;51.042;13.804;2022-11-20T03:27:35;-5.70;99.90
19033;DHT22;9649;51.042;13.804;2022-11-20T03:32:38;-5.50;99.90
19033;DHT22;9649;51.042;13.804;2022-11-20T03:37:41;-5.30;99.90
19033;DHT22;9649;51.042;13.804;2022-11-20T03:42:45;-5.40;99.90
19033;DHT22;9649;51.042;13.804;2022-11-20T03:47:48;-5.30;99.90
19033;DHT22;9649;51.042;13.804;2022-11-20T03:52:51;-5.30;99.90
19033;DHT22;9649;51.042;13.804;2022-11-20T03:57:58;-5.30;99.90
19033;DHT22;9649;51.042;13.804;2022-11-20T04:03:01;-5.40;99.90
19033;DHT22;9649;51.042;13.804;2022-11-20T04:08:05;-5.70;99.90
19033;DHT22;9649;51.042;13.804;2022-11-20T04:13:09;-6.00;99.90
19033;DHT22;9649;51.042;13.804;2022-11-20T04:18:12;-5.90;99.90
19033;DHT22;9649;51.042;13.804;2022-11-20T04:23:14;-5.60;99.90
19033;DHT22;9649;51.042;13.804;2022-11-20T04:28:19;-5.60;99.90
19033;DHT22;9649;51.042;13.804;2022-11-20T04:33:22;-5.80;99.90
19033;DHT22;9649;51.042;13.804;2022-11-20T04:38:28;-5.90;99.90
19033;DHT22;9649;51.042;13.804;2022-11-20T04:43:33;-5.50;99.90
19033;DHT22;9649;51.042;13.804;2022-11-20T04:48:36;-5.60;99.90
19033;DHT22;9649;51.042;13.804;2022-11-20T04:53:39;-5.90;99.90
19033;DHT22;9649;51.042;13.804;2022-11-20T04:58:43;-5.90;99.90
19033;DHT22;9649;51.042;13.804;2022-11-20T05:03:46;-5.90;99.90
19033;DHT22;9649;51.042;13.804;2022-11-20T05:08:49;-5.80;99.90
19033;DHT22;9649;51.042;13.804;2022-11-20T05:13:53;-5.90;99.90
19033;DHT22;9649;51.042;13.804;2022-11-20T05:18:59;-5.90;99.90
19033;DHT22;9649;51.042;13.804;2022-11-20T05:24:07;-6.00;99.90
19033;DHT22;9649;51.042;13.804;2022-11-20T05:29:11;-6.10;99.90
19033;DHT22;9649;51.042;13.804;2022-11-20T05:34:16;-6.00;99.90
19033;DHT22;9649;51.042;13.804;2022-11-20T05:39:19;-6.00;99.90
19033;DHT22;9649;51.042;13.804;2022-11-20T05:44:24;-6.20;99.90
19033;DHT22;9649;51.042;13.804;2022-11-20T05:49:26;-6.20;99.90
19033;DHT22;9649;51.042;13.804;2022-11-20T05:54:29;-6.30;99.90
19033;DHT22;9649;51.042;13.804;2022-11-20T05:59:33;-6.00;99.90
19033;DHT22;9649;51.042;13.804;2022-11-20T06:04:36;-5.80;99.90
19033;DHT22;9649;51.042;13.804;2022-11-20T06:09:39;-5.90;99.90
19033;DHT22;9649;51.042;13.804;2022-11-20T06:14:43;-5.80;99.90
19033;DHT22;9649;51.042;13.804;2022-11-20T06:19:46;-6.10;99.90
19033;DHT22;9649;51.042;13.804;2022-11-20T06:24:49;-6.50;99.90
19033;DHT22;9649;51.042;13.804;2022-11-20T06:29:53;-6.60;99.90
19033;DHT22;9649;51.042;13.804;2022-11-20T06:34:56;-6.50;99.90
19033;DHT22;9649;51.042;13.804;2022-11-20T06:39:59;-6.10;99.90
19033;DHT22;9649;51.042;13.804;2022-11-20T06:45:03;-5.70;99.90
19033;DHT22;9649;51.042;13.804;2022-11-20T06:50:07;-5.70;99.90
19033;DHT22;9649;51.042;13.804;2022-11-20T06:55:10;-5.70;99.90
19033;DHT22;9649;51.042;13.804;2022-11-20T07:00:15;-5.60;99.90
19033;DHT22;9649;51.042;13.804;2022-11-20T07:05:18;-5.20;99.90
19033;DHT22;9649;51.042;13.804;2022-11-20T07:10:21;-4.70;99.90
19033;DHT22;9649;51.042;13.804;2022-11-20T07:15:25;-4.20;99.90
19033;DHT22;9649;51.042;13.804;2022-11-20T07:20:28;-4.00;99.90
19033;DHT22;9649;51.042;13.804;2022-11-20T07:25:31;-3.10;99.90
19033;DHT22;9649;51.042;13.804;2022-11-20T07:30:35;-1.70;1.00
19033;DHT22;9649;51.042;13.804;2022-11-20T07:35:38;0.90;99.90
19033;DHT22;9649;51.042;13.804;2022-11-20T07:40:41;2.90;1.00
19033;DHT22;9649;51.042;13.804;2022-11-20T07:45:46;5.00;1.00
19033;DHT22;9649;51.042;13.804;2022-11-20T07:50:49;7.00;1.00
19033;DHT22;9649;51.042;13.804;2022-11-20T07:55:52;7.90;1.00
19033;DHT22;9649;51.042;13.804;2022-11-20T08:00:56;8.20;1.00
19033;DHT22;9649;51.042;13.804;2022-11-20T08:05:59;7.20;1.00
19033;DHT22;9649;51.042;13.804;2022-11-20T08:11:02;6.10;1.00
19033;DHT22;9649;51.042;13.804;2022-11-20T08:16:24;4.50;1.00
19033;DHT22;9649;51.042;13.804;2022-11-20T08:21:27;4.90;1.00
19033;DHT22;9649;51.042;13.804;2022-11-20T08:26:36;8.80;1.00
19033;DHT22;9649;51.042;13.804;2022-11-20T08:31:40;12.90;1.00
19033;DHT22;9649;51.042;13.804;2022-11-20T08:36:43;14.60;99.90
19033;DHT22;9649;51.042;13.804;2022-11-20T08:41:46;16.00;99.90
19033;DHT22;9649;51.042;13.804;2022-11-20T08:46:50;16.10;99.90
19033;DHT22;9649;51.042;13.804;2022-11-20T08:51:53;16.20;99.90
19033;DHT22;9649;51.042;13.804;2022-11-20T08:56:56;18.50;99.90
19033;DHT22;9649;51.042;13.804;2022-11-20T09:02:00;18.50;99.90
19033;DHT22;9649;51.042;13.804;2022-11-20T09:07:03;20.90;99.90
19033;DHT22;9649;51.042;13.804;2022-11-20T09:12:06;21.20;99.90
19033;DHT22;9649;51.042;13.804;2022-11-20T09:17:11;22.20;99.90
19033;DHT22;9649;51.042;13.804;2022-11-20T09:22:14;18.20;99.90
19033;DHT22;9649;51.042;13.804;2022-11-20T09:27:17;17.30;99.90
19033;DHT22;9649;51.042;13.804;2022-11-20T09:32:24;19.50;99.90
19033;DHT22;9649;51.042;13.804;2022-11-20T09:37:27;20.20;99.90
19033;DHT22;9649;51.042;13.804;2022-11-20T09:42:37;19.50;99.90
19033;DHT22;9649;51.042;13.804;2022-11-20T09:47:52;20.80;99.90
19033;DHT22;9649;51.042;13.804;2022-11-20T09:53:09;22.50;99.90
19033;DHT22;9649;51.042;13.804;2022-11-20T09:58:22;22.50;99.90
19033;DHT22;9649;51.042;13.804;2022-11-20T10:03:39;22.20;99.90
19033;DHT22;9649;51.042;13.804;2022-11-20T10:08:51;22.50;99.90
19033;DHT22;9649;51.042;13.804;2022-11-20T10:14:06;20.70;99.90
19033;DHT22;9649;51.042;13.804;2022-11-20T10:19:28;21.60;99.90
19033;DHT22;9649;51.042;13.804;2022-11-20T10:24:48;22.20;99.90
19033;DHT22;9649;51.042;13.804;2022-11-20T10:30:00;24.70;99.90
19033;DHT22;9649;51.042;13.804;2022-11-20T10:35:14;23.80;99.90
19033;DHT22;9649;51.042;13.804;2022-11-20T10:40:23;22.20;99.90
19033;DHT22;9649;51.042;13.804;2022-11-20T10:51:10;20.50;99.90
19033;DHT22;9649;51.042;13.804;2022-11-20T10:56:20;20.10;99.90
19033;DHT22;9649;51.042;13.804;2022-11-20T11:01:23;18.10;99.90
19033;DHT22;9649;51.042;13.804;2022-11-20T11:06:34;13.60;99.90
19033;DHT22;9649;51.042;13.804;2022-11-20T11:11:39;11.20;99.90
19033;DHT22;9649;51.042;13.804;2022-11-20T11:16:49;15.20;99.90
19033;DHT22;9649;51.042;13.804;2022-11-20T11:21:55;17.00;99.90
19033;DHT22;9649;51.042;13.804;2022-11-20T11:27:01;14.70;99.90
19033;DHT22;9649;51.042;13.804;2022-11-20T11:32:07;12.30;99.90
19033;DHT22;9649;51.042;13.804;2022-11-20T11:37:16;9.60;99.90
19033;DHT22;9649;51.042;13.804;2022-11-20T11:42:20;8.40;99.90
19033;DHT22;9649;51.042;13.804;2022-11-20T11:47:25;8.10;99.90
19033;DHT22;9649;51.042;13.804;2022-11-20T11:52:31;15.50;99.90
19033;DHT22;9649;51.042;13.804;2022-11-20T11:57:43;21.60;99.90
19033;DHT22;9649;51.042;13.804;2022-11-20T12:02:55;24.60;99.90
19033;DHT22;9649;51.042;13.804;2022-11-20T12:08:05;25.90;99.90
19033;DHT22;9649;51.042;13.804;2022-11-20T12:13:23;26.10;99.90
19033;DHT22;9649;51.042;13.804;2022-11-20T12:18:29;24.10;99.90
19033;DHT22;9649;51.042;13.804;2022-11-20T12:23:44;24.50;99.90
19033;DHT22;9649;51.042;13.804;2022-11-20T12:28:56;23.70;99.90
19033;DHT22;9649;51.042;13.804;2022-11-20T12:34:26;16.00;99.90
19033;DHT22;9649;51.042;13.804;2022-11-20T12:39:40;10.40;99.90
19033;DHT22;9649;51.042;13.804;2022-11-20T12:44:59;7.50;99.90
19033;DHT22;9649;51.042;13.804;2022-11-20T12:50:18;5.90;1.00
19033;DHT22;9649;51.042;13.804;2022-11-20T12:55:36;5.10;11.00
19033;DHT22;9649;51.042;13.804;2022-11-20T13:00:50;4.80;1.00
19033;DHT22;9649;51.042;13.804;2022-11-20T13:06:03;4.50;1.00
19033;DHT22;9649;51.042;13.804;2022-11-20T13:11:16;4.50;1.00
19033;DHT22;9649;51.042;13.804;2022-11-20T13:16:25;4.30;99.90
19033;DHT22;9649;51.042;13.804;2022-11-20T13:21:37;4.20;1.00
19033;DHT22;9649;51.042;13.804;2022-11-20T13:26:41;4.00;1.00
19033;DHT22;9649;51.042;13.804;2022-11-20T13:31:45;3.90;1.00
19033;DHT22;9649;51.042;13.804;2022-11-20T13:36:49;3.80;1.00
19033;DHT22;9649;51.042;13.804;2022-11-20T13:41:58;3.90;99.90
19033;DHT22;9649;51.042;13.804;2022-11-20T13:47:01;3.80;1.00
19033;DHT22;9649;51.042;13.804;2022-11-20T13:52:23;3.70;1.00
19033;DHT22;9649;51.042;13.804;2022-11-20T13:57:48;3.60;1.00
19033;DHT22;9649;51.042;13.804;2022-11-20T14:03:06;3.50;1.00
19033;DHT22;9649;51.042;13.804;2022-11-20T14:08:21;3.20;1.00
19033;DHT22;9649;51.042;13.804;2022-11-20T14:13:27;3.20;99.90
19033;DHT22;9649;51.042;13.804;2022-11-20T14:18:29;3.10;1.00
19033;DHT22;9649;51.042;13.804;2022-11-20T14:23:32;3.00;20.20
19033;DHT22;9649;51.042;13.804;2022-11-20T14:28:36;2.80;1.00
19033;DHT22;9649;51.042;13.804;2022-11-20T14:33:39;3.00;1.00
19033;DHT22;9649;51.042;13.804;2022-11-20T14:38:42;3.10;1.00
19033;DHT22;9649;51.042;13.804;2022-11-20T14:43:48;2.80;1.00
19033;DHT22;9649;51.042;13.804;2022-11-20T14:48:56;2.80;99.90
19033;DHT22;9649;51.042;13.804;2022-11-20T14:54:12;2.50;1.00
19033;DHT22;9649;51.042;13.804;2022-11-20T14:59:23;2.40;1.00
19033;DHT22;9649;51.042;13.804;2022-11-20T15:04:26;2.20;99.90
19033;DHT22;9649;51.042;13.804;2022-11-20T15:09:31;1.70;1.00
19033;DHT22;9649;51.042;13.804;2022-11-20T15:14:36;1.40;1.00
19033;DHT22;9649;51.042;13.804;2022-11-20T15:19:39;1.00;99.90
19033;DHT22;9649;51.042;13.804;2022-11-20T15:24:42;0.70;1.00
19033;DHT22;9649;51.042;13.804;2022-11-20T15:29:46;0.50;1.00
19033;DHT22;9649;51.042;13.804;2022-11-20T15:34:49;0.10;1.00
19033;DHT22;9649;51.042;13.804;2022-11-20T15:39:51;-0.20;1.00
19033;DHT22;9649;51.042;13.804;2022-11-20T15:44:56;-0.50;1.00
19033;DHT22;9649;51.042;13.804;2022-11-20T15:49:58;-0.80;40.30
19033;DHT22;9649;51.042;13.804;2022-11-20T15:55:04;-0.90;77.80
19033;DHT22;9649;51.042;13.804;2022-11-20T16:00:13;-1.10;99.90
19033;DHT22;9649;51.042;13.804;2022-11-20T16:05:24;-1.10;99.90
19033;DHT22;9649;51.042;13.804;2022-11-20T16:10:30;-1.30;99.90
19033;DHT22;9649;51.042;13.804;2022-11-20T16:15:34;-1.30;99.90
19033;DHT22;9649;51.042;13.804;2022-11-20T16:20:52;-1.40;99.90
19033;DHT22;9649;51.042;13.804;2022-11-20T16:25:55;-1.40;99.90
19033;DHT22;9649;51.042;13.804;2022-11-20T16:31:08;-1.50;99.90
19033;DHT22;9649;51.042;13.804;2022-11-20T16:36:11;-1.50;99.90
19033;DHT22;9649;51.042;13.804;2022-11-20T16:41:14;-1.50;99.90
19033;DHT22;9649;51.042;13.804;2022-11-20T16:46:20;-1.60;99.90
19033;DHT22;9649;51.042;13.804;2022-11-20T16:51:24;-1.60;99.90
19033;DHT22;9649;51.042;13.804;2022-11-20T16:56:27;-1.60;99.90
19033;DHT22;9649;51.042;13.804;2022-11-20T17:01:31;-1.80;99.90
19033;DHT22;9649;51.042;13.804;2022-11-20T17:06:37;-1.80;99.90
19033;DHT22;9649;51.042;13.804;2022-11-20T17:11:41;-1.80;99.90
19033;DHT22;9649;51.042;13.804;2022-11-20T17:16:46;-1.80;99.90
19033;DHT22;9649;51.042;13.804;2022-11-20T17:21:49;-2.00;99.90
19033;DHT22;9649;51.042;13.804;2022-11-20T17:26:51;-2.20;99.90
19033;DHT22;9649;51.042;13.804;2022-11-20T17:31:55;-2.10;99.90
19033;DHT22;9649;51.042;13.804;2022-11-20T17:36:58;-2.20;99.90
19033;DHT22;9649;51.042;13.804;2022-11-20T17:42:01;-2.30;99.90
19033;DHT22;9649;51.042;13.804;2022-11-20T17:47:24;-2.40;99.90
19033;DHT22;9649;51.042;13.804;2022-11-20T17:52:27;-2.40;99.90
19033;DHT22;9649;51.042;13.804;2022-11-20T17:57:29;-2.50;99.90
19033;DHT22;9649;51.042;13.804;2022-11-20T18:02:51;-2.60;99.90
19033;DHT22;9649;51.042;13.804;2022-11-20T18:07:54;-2.50;99.90
19033;DHT22;9649;51.042;13.804;2022-11-20T18:12:56;-2.50;99.90
19033;DHT22;9649;51.042;13.804;2022-11-20T18:18:01;-2.50;99.90
19033;DHT22;9649;51.042;13.804;2022-11-20T18:23:03;-2.50;99.90
19033;DHT22;9649;51.042;13.804;2022-11-20T18:28:06;-2.20;99.90
19033;DHT22;9649;51.042;13.804;2022-11-20T18:33:10;-2.30;99.90
19033;DHT22;9649;51.042;13.804;2022-11-20T18:38:13;-2.40;99.90
19033;DHT22;9649;51.042;13.804;2022-11-20T18:43:16;-2.30;99.90
19033;DHT22;9649;51.042;13.804;2022-11-20T18:48:37;-2.50;99.90
19033;DHT22;9649;51.042;13.804;2022-11-20T18:53:40;-2.40;99.90
19033;DHT22;9649;51.042;13.804;2022-11-20T18:58:48;-2.30;99.90
19033;DHT22;9649;51.042;13.804;2022-11-20T19:03:52;-2.20;99.90
19033;DHT22;9649;51.042;13.804;2022-11-20T19:08:54;-2.00;99.90
19033;DHT22;9649;51.042;13.804;2022-11-20T19:13:57;-1.90;99.90
19033;DHT22;9649;51.042;13.804;2022-11-20T19:19:03;-1.90;99.90
19033;DHT22;9649;51.042;13.804;2022-11-20T19:24:07;-2.00;99.90
19033;DHT22;9649;51.042;13.804;2022-11-20T19:29:12;-2.00;99.90
19033;DHT22;9649;51.042;13.804;2022-11-20T19:34:17;-2.20;99.90
19033;DHT22;9649;51.042;13.804;2022-11-20T19:39:19;-2.00;99.90
19033;DHT22;9649;51.042;13.804;2022-11-20T19:44:23;-2.10;99.90
19033;DHT22;9649;51.042;13.804;2022-11-20T19:49:28;-2.20;99.90
19033;DHT22;9649;51.042;13.804;2022-11-20T19:54:30;-2.30;99.90
19033;DHT22;9649;51.042;13.804;2022-11-20T19:59:33;-2.30;99.90
19033;DHT22;9649;51.042;13.804;2022-11-20T20:04:37;-2.30;99.90
19033;DHT22;9649;51.042;13.804;2022-11-20T20:09:40;-2.30;99.90
19033;DHT22;9649;51.042;13.804;2022-11-20T20:14:43;-2.30;99.90
19033;DHT22;9649;51.042;13.804;2022-11-20T20:19:47;-2.20;99.90
19033;DHT22;9649;51.042;13.804;2022-11-20T20:24:50;-2.30;99.90
19033;DHT22;9649;51.042;13.804;2022-11-20T20:29:53;-1.90;99.90
19033;DHT22;9649;51.042;13.804;2022-11-20T20:34:57;-1.70;99.90
19033;DHT22;9649;51.042;13.804;2022-11-20T20:40:00;-1.60;99.90
19033;DHT22;9649;51.042;13.804;2022-11-20T20:45:04;-1.30;99.90
19033;DHT22;9649;51.042;13.804;2022-11-20T20:50:12;-1.20;99.90
19033;DHT22;9649;51.042;13.804;2022-11-20T20:55:15;-1.20;99.90
19033;DHT22;9649;51.042;13.804;2022-11-20T21:00:18;-1.20;99.90
19033;DHT22;9649;51.042;13.804;2022-11-20T21:05:22;-1.20;99.90
19033;DHT22;9649;51.042;13.804;2022-11-20T21:10:26;-1.30;99.90
19033;DHT22;9649;51.042;13.804;2022-11-20T21:15:28;-1.30;99.90
19033;DHT22;9649;51.042;13.804;2022-11-20T21:20:33;-1.30;99.90
19033;DHT22;9649;51.042;13.804;2022-11-20T21:25:53;-1.30;99.90
19033;DHT22;9649;51.042;13.804;2022-11-20T21:31:02;-1.30;99.90
19033;DHT22;9649;51.042;13.804;2022-11-20T21:36:08;-1.30;99.90
19033;DHT22;9649;51.042;13.804;2022-11-20T21:41:12;-1.20;99.90
19033;DHT22;9649;51.042;13.804;2022-11-20T21:46:16;-1.00;99.90
19033;DHT22;9649;51.042;13.804;2022-11-20T21:51:22;-0.70;99.90
19033;DHT22;9649;51.042;13.804;2022-11-20T21:56:25;-0.70;99.90
19033;DHT22;9649;51.042;13.804;2022-11-20T22:01:29;-0.60;99.90
19033;DHT22;9649;51.042;13.804;2022-11-20T22:06:34;-0.50;99.90
19033;DHT22;9649;51.042;13.804;2022-11-20T22:11:39;-0.50;99.90
19033;DHT22;9649;51.042;13.804;2022-11-20T22:16:42;-0.50;99.90
19033;DHT22;9649;51.042;13.804;2022-11-20T22:21:46;-0.40;95.50
19033;DHT22;9649;51.042;13.804;2022-11-20T22:26:49;-0.40;46.60
19033;DHT22;9649;51.042;13.804;2022-11-20T22:31:52;-0.30;20.70
19033;DHT22;9649;51.042;13.804;2022-11-20T22:36:57;-0.20;9.70
19033;DHT22;9649;51.042;13.804;2022-11-20T22:42:12;-0.10;1.00
19033;DHT22;9649;51.042;13.804;2022-11-20T22:47:18;-0.10;1.00
19033;DHT22;9649;51.042;13.804;2022-11-20T22:52:25;-0.10;1.00
19033;DHT22;9649;51.042;13.804;2022-11-20T23:04:02;-0.10;1.00
19033;DHT22;9649;51.042;13.804;2022-11-20T23:09:21;-0.10;72.50
19033;DHT22;9649;51.042;13.804;2022-11-20T23:14:30;-0.20;99.90
19033;DHT22;9649;51.042;13.804;2022-11-20T23:19:37;-0.30;99.90
19033;DHT22;9649;51.042;13.804;2022-11-20T23:24:44;-0.30;99.90
19033;DHT22;9649;51.042;13.804;2022-11-20T23:29:50;-0.30;99.90
19033;DHT22;9649;51.042;13.804;2022-11-20T23:34:56;-0.30;99.90
19033;DHT22;9649;51.042;13.804;2022-11-20T23:40:00;-0.30;99.90
19033;DHT22;9649;51.042;13.804;2022-11-20T23:45:04;-0.20;99.90
19033;DHT22;9649;51.042;13.804;2022-11-20T23:50:08;-0.10;99.90
19033;DHT22;9649;51.042;13.804;2022-11-20T23:55:20;0.00;99.90
